Time;durP1;ratioP1;P1;durP2;ratioP2;P2;SDS_P1;SDS_P2;PMS_P1;PMS_P2;Temp;Humidity;BMP_temperature;BMP_pressure;BME280_temperature;BME280_humidity;BME280_pressure;Samples;Min_cycle;Max_cycle;Signal;HPM_P1;HPM_P2
2022/06/06 00:02:08;;;;;;;56.10;30.05;;;;;;;;;;5056304;27;89983;-73
2022/06/06 00:04:35;;;;;;;60.45;29.40;;;;;;;;;;5068561;27;90450;-72
2022/06/06 00:07:02;;;;;;;56.60;27.88;;;;;;;;;;5053713;27;90125;-72
2022/06/06 00:09:28;;;;;;;55.25;26.48;;;;;;;;;;5056865;27;91121;-72
2022/06/06 00:11:56;;;;;;;49.65;24.58;;;;;;;;;;5078479;27;89373;-72
2022/06/06 00:14:22;;;;;;;47.22;24.58;;;;;;;;;;5057134;27;90673;-72
2022/06/06 00:16:48;;;;;;;40.50;23.35;;;;;;;;;;5064197;27;89840;-72
2022/06/06 00:19:15;;;;;;;48.00;23.30;;;;;;;;;;5077286;27;89024;-73
2022/06/06 00:21:42;;;;;;;49.67;23.80;;;;;;;;;;5085971;27;90237;-73
2022/06/06 00:24:08;;;;;;;47.55;23.42;;;;;;;;;;5084623;27;90387;-72
2022/06/06 00:26:35;;;;;;;49.08;23.08;;;;;;;;;;5082993;27;89029;-73
2022/06/06 00:29:02;;;;;;;39.67;22.27;;;;;;;;;;5093634;27;88966;-72
2022/06/06 00:36:59;;;;;;;39.50;22.17;;;;;;;;;;5076517;27;89960;-73
2022/06/06 00:39:26;;;;;;;34.30;20.48;;;;;;;;;;5097482;27;90658;-73
2022/06/06 00:41:53;;;;;;;34.90;20.10;;;;;;;;;;5084319;27;89622;-72
2022/06/06 00:44:21;;;;;;;34.53;21.38;;;;;;;;;;5058273;27;89398;-73
2022/06/06 00:46:50;;;;;;;38.92;22.45;;;;;;;;;;5075086;27;89045;-72
2022/06/06 00:49:22;;;;;;;38.10;22.20;;;;;;;;;;5087564;27;89906;-74
2022/06/06 00:51:48;;;;;;;38.47;23.35;;;;;;;;;;5081420;27;90786;-72
2022/06/06 00:54:14;;;;;;;41.38;24.88;;;;;;;;;;5074084;27;90623;-72
2022/06/06 00:56:45;;;;;;;43.20;25.67;;;;;;;;;;5091246;27;90229;-72
2022/06/06 00:59:13;;;;;;;46.47;24.83;;;;;;;;;;5094314;27;89348;-72
2022/06/06 01:01:40;;;;;;;41.67;24.60;;;;;;;;;;5068464;27;89656;-72
2022/06/06 01:04:08;;;;;;;44.72;24.75;;;;;;;;;;5081855;27;89544;-73
2022/06/06 01:06:36;;;;;;;42.92;23.98;;;;;;;;;;5054607;27;89087;-73
2022/06/06 01:09:04;;;;;;;41.33;22.73;;;;;;;;;;5079628;27;90625;-73
2022/06/06 01:11:34;;;;;;;47.72;25.17;;;;;;;;;;5080007;27;89578;-73
2022/06/06 01:14:01;;;;;;;45.20;24.30;;;;;;;;;;5078618;27;90061;-73
2022/06/06 01:16:45;;;;;;;45.75;24.70;;;;;;;;;;5084356;27;89757;-73
2022/06/06 01:19:31;;;;;;;47.88;24.52;;;;;;;;;;5081299;27;89623;-72
2022/06/06 01:21:58;;;;;;;46.70;24.25;;;;;;;;;;5076102;27;90705;-72
2022/06/06 01:24:42;;;;;;;43.90;22.95;;;;;;;;;;5091866;27;89825;-73
2022/06/06 01:27:26;;;;;;;41.80;22.95;;;;;;;;;;5088322;27;89013;-72
2022/06/06 01:29:56;;;;;;;36.80;23.60;;;;;;;;;;5080692;27;89906;-72
2022/06/06 01:32:23;;;;;;;41.50;23.05;;;;;;;;;;5075118;27;90414;-73
2022/06/06 01:34:52;;;;;;;46.78;25.27;;;;;;;;;;5081305;27;90051;-72
2022/06/06 01:37:23;;;;;;;43.45;24.42;;;;;;;;;;5089140;27;91287;-72
2022/06/06 01:39:50;;;;;;;48.33;24.80;;;;;;;;;;5081673;27;89652;-73
2022/06/06 01:42:19;;;;;;;46.08;24.23;;;;;;;;;;5074977;27;89150;-73
2022/06/06 01:44:47;;;;;;;43.80;22.30;;;;;;;;;;5075855;27;90045;-73
2022/06/06 01:47:26;;;;;;;40.45;22.27;;;;;;;;;;5095425;27;89522;-72
2022/06/06 01:49:55;;;;;;;37.10;21.17;;;;;;;;;;5064781;27;90100;-72
2022/06/06 01:52:21;;;;;;;38.83;20.85;;;;;;;;;;5091835;27;89588;-73
2022/06/06 01:54:51;;;;;;;36.78;21.02;;;;;;;;;;5076877;27;89054;-73
2022/06/06 01:57:18;;;;;;;42.38;20.83;;;;;;;;;;5085111;27;90150;-72
2022/06/06 01:59:44;;;;;;;43.92;20.70;;;;;;;;;;5096416;27;90520;-72
2022/06/06 02:02:11;;;;;;;39.20;20.35;;;;;;;;;;5089774;27;89413;-72
2022/06/06 02:04:37;;;;;;;40.05;19.90;;;;;;;;;;5080387;27;90212;-73
2022/06/06 02:07:04;;;;;;;37.38;18.88;;;;;;;;;;5100270;27;89348;-72
2022/06/06 02:09:32;;;;;;;36.03;19.00;;;;;;;;;;5079945;27;91084;-72
2022/06/06 02:11:59;;;;;;;33.95;17.58;;;;;;;;;;5073802;27;89362;-72
2022/06/06 02:14:26;;;;;;;36.53;18.67;;;;;;;;;;5084476;27;89022;-73
2022/06/06 02:16:52;;;;;;;34.38;18.73;;;;;;;;;;5080261;27;89688;-72
2022/06/06 02:19:19;;;;;;;28.67;15.57;;;;;;;;;;5079274;27;90578;-72
2022/06/06 02:21:45;;;;;;;27.67;15.63;;;;;;;;;;5097023;27;89191;-72
2022/06/06 02:24:11;;;;;;;29.38;16.35;;;;;;;;;;5068937;27;90078;-72
2022/06/06 02:26:38;;;;;;;30.95;16.80;;;;;;;;;;5075538;27;90607;-72
2022/06/06 02:29:05;;;;;;;30.48;16.65;;;;;;;;;;5102699;27;88922;-73
2022/06/06 02:31:37;;;;;;;34.50;17.33;;;;;;;;;;5099258;27;89647;-72
2022/06/06 02:34:04;;;;;;;33.17;17.73;;;;;;;;;;5086235;27;89231;-72
2022/06/06 02:36:30;;;;;;;33.15;16.75;;;;;;;;;;5099471;27;90196;-72
2022/06/06 02:38:57;;;;;;;31.70;18.02;;;;;;;;;;5065480;27;89885;-73
2022/06/06 02:41:25;;;;;;;36.38;20.08;;;;;;;;;;5082345;27;89761;-72
2022/06/06 02:43:52;;;;;;;40.35;20.08;;;;;;;;;;5089164;27;89866;-73
2022/06/06 02:46:19;;;;;;;39.92;21.10;;;;;;;;;;5082534;27;89567;-72
2022/06/06 02:48:45;;;;;;;37.08;20.23;;;;;;;;;;5086981;27;90962;-72
2022/06/06 02:51:11;;;;;;;45.00;21.45;;;;;;;;;;5102815;27;92710;-73
2022/06/06 02:53:38;;;;;;;37.65;21.23;;;;;;;;;;5085010;27;88969;-73
2022/06/06 02:56:04;;;;;;;43.38;22.08;;;;;;;;;;5072591;27;89089;-73
2022/06/06 02:58:31;;;;;;;42.65;22.60;;;;;;;;;;5078838;27;89276;-72
2022/06/06 03:01:01;;;;;;;43.45;22.83;;;;;;;;;;5079144;27;88791;-73
2022/06/06 03:03:27;;;;;;;;;;;;;;;;;;5077776;27;89996;-72
2022/06/06 03:06:11;;;;;;;53.60;24.15;;;;;;;;;;5081652;27;119135;-72
2022/06/06 03:08:49;;;;;;;50.28;24.90;;;;;;;;;;5079413;27;89834;-73
2022/06/06 03:11:30;;;;;;;46.15;24.08;;;;;;;;;;5080011;27;91469;-73
2022/06/06 03:13:59;;;;;;;50.83;23.48;;;;;;;;;;5096375;27;89393;-73
2022/06/06 03:22:26;;;;;;;46.17;24.77;;;;;;;;;;5078018;27;89842;-72
2022/06/06 03:25:00;;;;;;;52.80;24.85;;;;;;;;;;5075873;27;90175;-73
2022/06/06 03:27:45;;;;;;;55.88;25.33;;;;;;;;;;5079129;27;89373;-73
2022/06/06 03:30:30;;;;;;;53.78;26.02;;;;;;;;;;5059595;27;88862;-72
2022/06/06 03:33:06;;;;;;;50.03;24.90;;;;;;;;;;5076563;27;90826;-73
2022/06/06 03:35:46;;;;;;;56.17;24.38;;;;;;;;;;5078480;27;90433;-73
2022/06/06 03:38:16;;;;;;;52.97;25.13;;;;;;;;;;5063697;27;88869;-73
2022/06/06 03:40:51;;;;;;;52.90;24.30;;;;;;;;;;5079077;27;90502;-72
2022/06/06 03:43:26;;;;;;;57.38;25.48;;;;;;;;;;5078160;27;88955;-73
2022/06/06 03:45:55;;;;;;;60.70;26.15;;;;;;;;;;5078096;27;90244;-72
2022/06/06 03:48:22;;;;;;;59.10;25.13;;;;;;;;;;5078559;27;90695;-73
2022/06/06 03:50:54;;;;;;;54.03;27.05;;;;;;;;;;5079000;27;90455;-73
2022/06/06 03:53:31;;;;;;;54.10;24.08;;;;;;;;;;5076647;27;90492;-72
2022/06/06 03:56:00;;;;;;;59.92;27.27;;;;;;;;;;5075348;27;89745;-72
2022/06/06 03:58:28;;;;;;;52.30;25.23;;;;;;;;;;5071361;27;90043;-73
2022/06/06 04:00:56;;;;;;;57.25;26.02;;;;;;;;;;5094667;27;90891;-73
2022/06/06 04:03:24;;;;;;;56.72;26.33;;;;;;;;;;5077652;27;89051;-72
2022/06/06 04:05:51;;;;;;;55.40;24.77;;;;;;;;;;5083547;27;90177;-72
2022/06/06 04:08:17;;;;;;;53.33;24.90;;;;;;;;;;5077844;27;89633;-73
2022/06/06 04:10:49;;;;;;;54.80;26.33;;;;;;;;;;5089317;27;88869;-72
2022/06/06 04:13:28;;;;;;;56.38;26.60;;;;;;;;;;5083517;27;90656;-72
2022/06/06 04:16:24;;;;;;;57.53;26.08;;;;;;;;;;5084726;27;90889;-72
2022/06/06 04:19:03;;;;;;;62.03;25.92;;;;;;;;;;5071844;27;90222;-72
2022/06/06 04:21:35;;;;;;;62.15;28.50;;;;;;;;;;5086068;27;89612;-72
2022/06/06 04:24:04;;;;;;;62.55;26.98;;;;;;;;;;5071886;27;89089;-72
2022/06/06 04:26:37;;;;;;;68.53;28.67;;;;;;;;;;5071159;27;91157;-73
2022/06/06 04:29:22;;;;;;;56.20;27.60;;;;;;;;;;5097757;27;89490;-72
2022/06/06 04:31:48;;;;;;;59.30;28.60;;;;;;;;;;5092228;27;89975;-72
2022/06/06 04:34:18;;;;;;;56.55;26.92;;;;;;;;;;5088007;27;89851;-73
2022/06/06 04:36:59;;;;;;;54.25;26.65;;;;;;;;;;5076966;27;89740;-72
2022/06/06 04:39:25;;;;;;;;;;;;;;;;;;5085803;27;89698;-73
2022/06/06 04:41:55;;;;;;;59.47;25.02;;;;;;;;;;5085215;27;121000;-72
2022/06/06 04:44:22;;;;;;;52.88;22.70;;;;;;;;;;5088712;27;89357;-72
2022/06/06 04:46:55;;;;;;;44.35;20.90;;;;;;;;;;5072874;27;90227;-72
2022/06/06 04:49:22;;;;;;;45.25;20.08;;;;;;;;;;5093296;27;89069;-72
2022/06/06 04:51:48;;;;;;;37.47;18.38;;;;;;;;;;5060814;27;88994;-73
2022/06/06 04:54:17;;;;;;;36.33;18.48;;;;;;;;;;5090214;27;89033;-72
2022/06/06 04:56:51;;;;;;;47.33;21.23;;;;;;;;;;5098627;27;89559;-73
2022/06/06 04:59:19;;;;;;;49.33;23.00;;;;;;;;;;5074295;27;89370;-73
2022/06/06 05:01:46;;;;;;;47.47;23.23;;;;;;;;;;5072931;27;91448;-72
2022/06/06 05:04:12;;;;;;;43.45;22.92;;;;;;;;;;5075605;27;89222;-73
2022/06/06 05:06:47;;;;;;;44.42;23.30;;;;;;;;;;5101137;27;89395;-73
2022/06/06 05:09:19;;;;;;;45.88;22.73;;;;;;;;;;5087766;27;89617;-72
2022/06/06 05:11:46;;;;;;;39.97;22.15;;;;;;;;;;5075861;27;90695;-72
2022/06/06 05:14:21;;;;;;;42.45;22.17;;;;;;;;;;5088173;27;90148;-72
2022/06/06 05:17:12;;;;;;;34.53;20.98;;;;;;;;;;5077582;27;90734;-73
2022/06/06 05:19:57;;;;;;;42.00;22.13;;;;;;;;;;5074162;27;89051;-73
2022/06/06 05:22:35;;;;;;;41.15;20.77;;;;;;;;;;5070031;27;89919;-73
2022/06/06 05:25:13;;;;;;;32.92;18.88;;;;;;;;;;5070572;27;89230;-73
2022/06/06 05:27:58;;;;;;;29.42;17.80;;;;;;;;;;5076414;27;89371;-73
2022/06/06 05:30:34;;;;;;;29.95;18.00;;;;;;;;;;5060990;27;91884;-73
2022/06/06 05:33:19;;;;;;;30.00;17.95;;;;;;;;;;5058033;27;89432;-72
2022/06/06 05:35:58;;;;;;;30.45;16.95;;;;;;;;;;5036976;28;90960;-73
2022/06/06 05:38:37;;;;;;;29.02;16.58;;;;;;;;;;5049083;27;89816;-73
2022/06/06 05:41:03;;;;;;;29.65;15.75;;;;;;;;;;5058782;27;89137;-73
2022/06/06 05:43:33;;;;;;;27.45;14.77;;;;;;;;;;5053793;27;90508;-73
2022/06/06 05:46:10;;;;;;;22.42;13.88;;;;;;;;;;5055261;27;89205;-73
2022/06/06 05:48:55;;;;;;;21.95;13.27;;;;;;;;;;5058398;27;89430;-72
2022/06/06 05:51:40;;;;;;;23.00;12.18;;;;;;;;;;5077868;27;91074;-73
2022/06/06 05:54:15;;;;;;;26.15;12.23;;;;;;;;;;5063771;27;89629;-73
2022/06/06 05:56:53;;;;;;;25.58;11.70;;;;;;;;;;5079943;27;89719;-73
2022/06/06 05:59:38;;;;;;;26.80;12.15;;;;;;;;;;5055910;27;89482;-72
2022/06/06 06:02:14;;;;;;;23.70;10.75;;;;;;;;;;5057169;27;89092;-72
2022/06/06 06:04:43;;;;;;;18.40;10.35;;;;;;;;;;5073606;27;91290;-72
2022/06/06 06:07:18;;;;;;;17.92;9.57;;;;;;;;;;5076772;27;89647;-74
2022/06/06 06:10:03;;;;;;;17.00;8.88;;;;;;;;;;5065319;27;89030;-71
2022/06/06 06:12:35;;;;;;;19.27;8.98;;;;;;;;;;5057482;27;88092;-74
2022/06/06 06:15:15;;;;;;;18.60;8.70;;;;;;;;;;5068993;27;88477;-73
2022/06/06 06:17:42;;;;;;;17.02;7.97;;;;;;;;;;5065820;27;88131;-71
2022/06/06 06:20:11;;;;;;;15.75;7.30;;;;;;;;;;5059915;27;88032;-72
2022/06/06 06:22:39;;;;;;;19.70;6.75;;;;;;;;;;5066913;27;89986;-72
2022/06/06 06:25:05;;;;;;;11.73;6.28;;;;;;;;;;5063600;27;88741;-73
2022/06/06 06:27:33;;;;;;;17.88;7.30;;;;;;;;;;5059878;27;89317;-71
2022/06/06 06:30:00;;;;;;;21.08;6.75;;;;;;;;;;5051765;27;89255;-71
2022/06/06 06:32:44;;;;;;;12.63;6.18;;;;;;;;;;5062980;27;88112;-77
2022/06/06 06:35:16;;;;;;;12.52;5.93;;;;;;;;;;5062441;27;89553;-73
2022/06/06 06:37:45;;;;;;;12.15;6.57;;;;;;;;;;5063165;27;88780;-72
2022/06/06 06:40:11;;;;;;;14.05;5.60;;;;;;;;;;5058152;27;88058;-72
2022/06/06 06:42:40;;;;;;;15.60;5.97;;;;;;;;;;5059356;27;89235;-71
2022/06/06 06:45:08;;;;;;;10.15;5.50;;;;;;;;;;5057540;27;88736;-72
2022/06/06 06:47:35;;;;;;;17.75;5.38;;;;;;;;;;5055629;27;88699;-72
2022/06/06 06:50:07;;;;;;;13.43;4.78;;;;;;;;;;5059643;27;89556;-70
2022/06/06 06:52:45;;;;;;;11.45;4.25;;;;;;;;;;5059760;27;89076;-73
2022/06/06 06:55:11;;;;;;;13.73;5.20;;;;;;;;;;5058637;27;88470;-74
2022/06/06 06:57:47;;;;;;;10.35;4.90;;;;;;;;;;5059134;27;88885;-75
2022/06/06 07:00:23;;;;;;;10.98;5.00;;;;;;;;;;5063464;27;88827;-74
2022/06/06 07:08:50;;;;;;;13.65;4.47;;;;;;;;;;5060101;27;89793;-74
2022/06/06 07:11:19;;;;;;;10.27;4.07;;;;;;;;;;5058244;27;89257;-74
2022/06/06 07:13:48;;;;;;;9.88;4.10;;;;;;;;;;5057417;27;87911;-74
2022/06/06 07:16:18;;;;;;;11.98;4.25;;;;;;;;;;5056430;27;88899;-75
2022/06/06 07:18:45;;;;;;;15.75;4.03;;;;;;;;;;5059605;27;89022;-70
2022/06/06 07:21:12;;;;;;;11.48;4.47;;;;;;;;;;5058378;27;88197;-75
2022/06/06 07:23:39;;;;;;;12.65;4.70;;;;;;;;;;5061848;27;88924;-75
2022/06/06 07:26:06;;;;;;;10.63;3.65;;;;;;;;;;5059324;27;88900;-78
2022/06/06 07:28:33;;;;;;;17.98;3.42;;;;;;;;;;5056796;27;89984;-74
2022/06/06 07:31:05;;;;;;;12.00;3.60;;;;;;;;;;5055734;27;93657;-77
2022/06/06 07:33:37;;;;;;;10.85;3.75;;;;;;;;;;5056663;27;91820;-77
2022/06/06 07:36:08;;;;;;;14.57;3.97;;;;;;;;;;5056624;27;93406;-76
2022/06/06 07:38:41;;;;;;;11.48;3.58;;;;;;;;;;5055457;27;93441;-76
2022/06/06 07:41:10;;;;;;;7.10;3.38;;;;;;;;;;5051664;27;95969;-76
2022/06/06 07:43:55;;;;;;;10.18;3.88;;;;;;;;;;5051997;27;95675;-76
2022/06/06 07:46:21;;;;;;;6.70;3.17;;;;;;;;;;5058857;27;93635;-76
2022/06/06 07:49:00;;;;;;;9.32;4.13;;;;;;;;;;5058929;27;94176;-77
2022/06/06 07:51:43;;;;;;;6.95;3.25;;;;;;;;;;5057815;27;93460;-77
2022/06/06 07:54:15;;;;;;;9.93;3.55;;;;;;;;;;5059880;27;93259;-76
2022/06/06 07:56:47;;;;;;;11.25;3.00;;;;;;;;;;5069588;27;92538;-77
2022/06/06 07:59:21;;;;;;;13.77;3.38;;;;;;;;;;5062788;27;92497;-78
2022/06/06 08:02:00;;;;;;;5.95;3.17;;;;;;;;;;5053024;27;92423;-79
2022/06/06 08:04:34;;;;;;;9.38;3.10;;;;;;;;;;5054687;27;93607;-79
2022/06/06 08:07:01;;;;;;;17.08;3.22;;;;;;;;;;5069872;27;96952;-78
2022/06/06 08:09:30;;;;;;;10.43;2.83;;;;;;;;;;5063823;27;92349;-77
2022/06/06 08:12:05;;;;;;;8.02;2.70;;;;;;;;;;5046406;27;93625;-76
2022/06/06 08:14:39;;;;;;;8.73;3.10;;;;;;;;;;5054320;27;93941;-78
2022/06/06 08:17:06;;;;;;;10.98;3.42;;;;;;;;;;5070474;27;96403;-78
2022/06/06 08:19:44;;;;;;;6.13;3.10;;;;;;;;;;5065636;27;93676;-78
2022/06/06 08:22:11;;;;;;;9.18;3.13;;;;;;;;;;5082478;27;92505;-78
2022/06/06 08:24:39;;;;;;;6.80;3.17;;;;;;;;;;5080110;27;93190;-77
2022/06/06 08:27:18;;;;;;;3.72;2.60;;;;;;;;;;5087515;27;94487;-78
2022/06/06 08:29:45;;;;;;;10.73;2.75;;;;;;;;;;5080495;27;92594;-78
2022/06/06 08:32:12;;;;;;;9.63;2.70;;;;;;;;;;5080007;27;94961;-77
2022/06/06 08:34:38;;;;;;;5.85;2.72;;;;;;;;;;5091980;27;92411;-78
2022/06/06 08:37:14;;;;;;;7.57;2.28;;;;;;;;;;5094090;27;94568;-76
2022/06/06 08:39:43;;;;;;;10.80;2.30;;;;;;;;;;5078765;27;93529;-77
2022/06/06 08:42:09;;;;;;;7.78;2.60;;;;;;;;;;5065616;27;92852;-75
2022/06/06 08:44:42;;;;;;;5.65;3.03;;;;;;;;;;5079175;27;93062;-72
2022/06/06 08:47:12;;;;;;;3.90;2.08;;;;;;;;;;5081237;27;93471;-77
2022/06/06 08:52:29;;;;;;;3.17;1.73;;;;;;;;;;5077028;27;122338;-75
2022/06/06 08:54:56;;;;;;;5.05;2.08;;;;;;;;;;5071529;27;92603;-76
2022/06/06 08:57:42;;;;;;;8.60;1.75;;;;;;;;;;5067036;27;95130;-79
2022/06/06 09:00:16;;;;;;;6.32;1.88;;;;;;;;;;5070914;27;95468;-78
2022/06/06 09:02:57;;;;;;;7.25;2.00;;;;;;;;;;5048921;27;92554;-79
2022/06/06 09:05:41;;;;;;;4.47;2.10;;;;;;;;;;5068455;27;93148;-78
2022/06/06 09:08:26;;;;;;;7.57;1.80;;;;;;;;;;5081929;27;93284;-76
2022/06/06 09:11:11;;;;;;;3.05;1.63;;;;;;;;;;5093977;27;92719;-75
2022/06/06 09:13:56;;;;;;;6.55;2.10;;;;;;;;;;5073472;27;93193;-75
2022/06/06 09:16:46;;;;;;;7.47;2.08;;;;;;;;;;5076192;27;92798;-77
2022/06/06 09:19:35;;;;;;;4.10;1.73;;;;;;;;;;5081975;27;93366;-77
2022/06/06 09:22:14;;;;;;;2.45;1.65;;;;;;;;;;5086920;27;94122;-77
2022/06/06 09:24:59;;;;;;;9.63;1.75;;;;;;;;;;5070977;27;94804;-76
2022/06/06 09:27:56;;;;;;;5.60;1.60;;;;;;;;;;5054873;27;95518;-79
2022/06/06 09:30:25;;;;;;;6.38;1.80;;;;;;;;;;5073919;27;92561;-77
2022/06/06 09:33:06;;;;;;;5.93;1.67;;;;;;;;;;5095805;27;92372;-73
2022/06/06 09:35:44;;;;;;;2.60;1.52;;;;;;;;;;5068624;27;93827;-76
2022/06/06 09:38:11;;;;;;;4.60;1.60;;;;;;;;;;5064711;27;94000;-76
2022/06/06 09:40:57;;;;;;;6.20;1.63;;;;;;;;;;5088253;27;92350;-76
2022/06/06 09:43:42;;;;;;;8.75;1.88;;;;;;;;;;5054974;27;92755;-76
2022/06/06 09:46:28;;;;;;;18.17;1.70;;;;;;;;;;5075368;27;92467;-75
2022/06/06 09:49:06;;;;;;;4.15;1.60;;;;;;;;;;5058687;27;94401;-76
2022/06/06 09:51:35;;;;;;;5.53;1.83;;;;;;;;;;5062478;27;95890;-76
2022/06/06 09:59:55;;;;;;;4.30;1.27;;;;;;;;;;5077058;27;94979;-76
2022/06/06 10:02:44;;;;;;;8.20;1.75;;;;;;;;;;5068470;27;92419;-76
2022/06/06 10:05:29;;;;;;;4.20;1.17;;;;;;;;;;5081484;27;93310;-76
2022/06/06 10:08:18;;;;;;;4.20;1.50;;;;;;;;;;5079454;27;92511;-76
2022/06/06 10:11:07;;;;;;;3.42;1.42;;;;;;;;;;5010264;28;92804;-76
2022/06/06 10:13:36;;;;;;;5.47;1.55;;;;;;;;;;5011265;28;93703;-76
2022/06/06 10:16:14;;;;;;;2.27;1.20;;;;;;;;;;5000846;28;93794;-74
2022/06/06 10:18:58;;;;;;;3.85;1.55;;;;;;;;;;5009610;28;94886;-74
2022/06/06 10:21:24;;;;;;;1.75;1.33;;;;;;;;;;5009649;28;94380;-76
2022/06/06 10:24:07;;;;;;;4.53;1.55;;;;;;;;;;5010859;28;92387;-76
2022/06/06 10:26:34;;;;;;;4.78;1.27;;;;;;;;;;5009330;28;93298;-76
2022/06/06 10:29:20;;;;;;;5.10;1.48;;;;;;;;;;5012725;28;93449;-74
2022/06/06 10:32:16;;;;;;;7.53;1.60;;;;;;;;;;5009317;28;94152;-76
2022/06/06 10:34:51;;;;;;;2.50;1.40;;;;;;;;;;5009585;28;94593;-74
2022/06/06 10:37:17;;;;;;;5.82;1.40;;;;;;;;;;5009188;28;92298;-76
2022/06/06 10:39:56;;;;;;;4.50;1.58;;;;;;;;;;4995079;28;92534;-76
2022/06/06 10:42:25;;;;;;;7.85;1.63;;;;;;;;;;5014363;28;93623;-76
2022/06/06 10:45:00;;;;;;;5.00;1.38;;;;;;;;;;5007840;28;95107;-76
2022/06/06 10:47:32;;;;;;;4.82;1.60;;;;;;;;;;5033315;27;95590;-75
2022/06/06 10:50:19;;;;;;;6.05;1.70;;;;;;;;;;5077725;27;93785;-76
2022/06/06 10:52:45;;;;;;;3.13;1.38;;;;;;;;;;5080909;27;92440;-76
2022/06/06 10:55:32;;;;;;;6.63;1.80;;;;;;;;;;5071186;27;93537;-75
2022/06/06 10:57:58;;;;;;;8.40;1.60;;;;;;;;;;5071734;27;92365;-75
2022/06/06 11:00:42;;;;;;;5.85;1.52;;;;;;;;;;5075103;27;92446;-74
2022/06/06 11:03:27;;;;;;;7.82;1.45;;;;;;;;;;5075046;27;92706;-75
2022/06/06 11:06:12;;;;;;;6.90;2.00;;;;;;;;;;5075830;27;92550;-74
2022/06/06 11:09:01;;;;;;;3.13;1.30;;;;;;;;;;5076140;27;93316;-76
2022/06/06 11:11:46;;;;;;;6.35;1.55;;;;;;;;;;5073401;27;95883;-75
2022/06/06 11:14:17;;;;;;;4.22;1.50;;;;;;;;;;5079671;27;92970;-75
2022/06/06 11:16:56;;;;;;;4.00;1.65;;;;;;;;;;5066744;27;93901;-74
2022/06/06 11:19:22;;;;;;;5.25;1.40;;;;;;;;;;5059399;27;92425;-73
2022/06/06 11:22:01;;;;;;;7.03;2.00;;;;;;;;;;5057778;27;94229;-73
2022/06/06 11:24:38;;;;;;;4.53;1.90;;;;;;;;;;5043338;27;94552;-75
2022/06/06 11:27:23;;;;;;;7.63;1.58;;;;;;;;;;5045618;27;93956;-76
2022/06/06 11:30:03;;;;;;;2.88;1.65;;;;;;;;;;5057297;27;92860;-74
2022/06/06 11:32:41;;;;;;;2.33;1.80;;;;;;;;;;5057164;27;94472;-76
2022/06/06 11:35:15;;;;;;;2.58;1.60;;;;;;;;;;5055996;27;92440;-74
2022/06/06 11:37:59;;;;;;;2.28;2.08;;;;;;;;;;5056264;27;95053;-74
2022/06/06 11:40:45;;;;;;;8.52;2.63;;;;;;;;;;5046983;27;92495;-74
2022/06/06 11:43:36;;;;;;;7.85;2.65;;;;;;;;;;5037336;27;93283;-73
2022/06/06 11:46:18;;;;;;;9.95;2.30;;;;;;;;;;5033858;27;94385;-72
2022/06/06 11:49:01;;;;;;;12.02;2.50;;;;;;;;;;5046535;27;92422;-73
2022/06/06 11:51:27;;;;;;;7.00;2.60;;;;;;;;;;5054394;27;92472;-72
2022/06/06 11:54:12;;;;;;;3.30;2.65;;;;;;;;;;5053622;27;93281;-73
2022/06/06 11:56:39;;;;;;;2.92;2.35;;;;;;;;;;5040098;27;91833;-77
2022/06/06 11:59:12;;;;;;;5.00;2.63;;;;;;;;;;5036518;28;93283;-76
2022/06/06 12:01:57;;;;;;;3.85;2.67;;;;;;;;;;5053279;27;94603;-75
2022/06/06 12:04:38;;;;;;;4.65;2.45;;;;;;;;;;5053570;27;94821;-75
2022/06/06 12:07:25;;;;;;;7.70;2.75;;;;;;;;;;5051904;27;93720;-75
2022/06/06 12:09:59;;;;;;;5.50;2.50;;;;;;;;;;5057993;27;92618;-75
2022/06/06 12:12:35;;;;;;;5.45;3.00;;;;;;;;;;5052126;27;93400;-75
2022/06/06 12:15:01;;;;;;;7.85;3.22;;;;;;;;;;5058631;27;92435;-76
2022/06/06 12:17:46;;;;;;;6.43;3.20;;;;;;;;;;5062463;27;92402;-75
2022/06/06 12:20:24;;;;;;;15.75;3.78;;;;;;;;;;5046461;27;92803;-76
2022/06/06 12:23:06;;;;;;;6.47;3.20;;;;;;;;;;5048313;27;93357;-74
2022/06/06 12:25:38;;;;;;;7.47;3.47;;;;;;;;;;5053367;27;92752;-75
2022/06/06 12:28:04;;;;;;;8.55;2.75;;;;;;;;;;5069829;27;93451;-73
2022/06/06 12:30:45;;;;;;;5.13;3.10;;;;;;;;;;5066082;27;94818;-74
2022/06/06 12:33:14;;;;;;;5.68;2.95;;;;;;;;;;5070886;27;95256;-75
2022/06/06 12:35:57;;;;;;;4.82;2.90;;;;;;;;;;5049804;27;93991;-75
2022/06/06 12:38:35;;;;;;;2.90;2.65;;;;;;;;;;5048952;27;94081;-75
2022/06/06 12:41:20;;;;;;;6.68;3.30;;;;;;;;;;5033703;27;93934;-75
2022/06/06 12:43:56;;;;;;;6.35;3.05;;;;;;;;;;5044636;27;93935;-74
2022/06/06 12:46:32;;;;;;;5.03;2.90;;;;;;;;;;5032703;27;93134;-75
2022/06/06 12:49:17;;;;;;;7.80;3.17;;;;;;;;;;5037860;27;92808;-76
2022/06/06 12:51:53;;;;;;;9.25;3.05;;;;;;;;;;5033545;27;94336;-76
2022/06/06 12:54:19;;;;;;;3.10;2.78;;;;;;;;;;5016101;27;94014;-75
2022/06/06 12:56:52;;;;;;;4.97;3.25;;;;;;;;;;5034848;27;96609;-76
2022/06/06 12:59:26;;;;;;;8.63;3.13;;;;;;;;;;5032235;27;94054;-75
2022/06/06 13:02:11;;;;;;;6.30;3.08;;;;;;;;;;5042493;27;94197;-77
2022/06/06 13:04:58;;;;;;;4.57;2.83;;;;;;;;;;5032721;27;94174;-76
2022/06/06 13:07:53;;;;;;;6.72;3.22;;;;;;;;;;5037507;27;92998;-77
2022/06/06 13:10:19;;;;;;;5.68;3.35;;;;;;;;;;5036194;27;93290;-77
2022/06/06 13:13:03;;;;;;;7.50;3.72;;;;;;;;;;5041328;27;94101;-74
2022/06/06 13:15:36;;;;;;;7.30;3.20;;;;;;;;;;5038976;27;93082;-76
2022/06/06 13:18:22;;;;;;;16.20;3.72;;;;;;;;;;5037181;27;94569;-77
2022/06/06 13:20:57;;;;;;;5.50;3.40;;;;;;;;;;5014213;27;93472;-76
2022/06/06 13:23:30;;;;;;;9.23;3.90;;;;;;;;;;5027021;27;96831;-77
2022/06/06 13:26:00;;;;;;;5.18;3.90;;;;;;;;;;5031297;27;94060;-77
2022/06/06 13:28:28;;;;;;;6.93;4.70;;;;;;;;;;5033603;27;94319;-75
2022/06/06 13:30:54;;;;;;;8.88;4.60;;;;;;;;;;5030229;27;93275;-76
2022/06/06 13:33:27;;;;;;;6.05;4.15;;;;;;;;;;5036098;27;94282;-74
2022/06/06 13:35:53;;;;;;;7.95;4.40;;;;;;;;;;5030233;27;93070;-75
2022/06/06 13:38:41;;;;;;;6.57;4.63;;;;;;;;;;5029650;27;93542;-74
2022/06/06 13:41:14;;;;;;;9.07;5.03;;;;;;;;;;5049444;27;92593;-74
2022/06/06 13:43:41;;;;;;;7.18;4.20;;;;;;;;;;5060132;27;92544;-75
2022/06/06 13:46:10;;;;;;;7.45;4.70;;;;;;;;;;5049677;27;94324;-75
2022/06/06 13:48:42;;;;;;;9.27;5.18;;;;;;;;;;5049412;27;95564;-73
2022/06/06 13:51:16;;;;;;;6.28;3.97;;;;;;;;;;5046356;27;96491;-73
2022/06/06 13:53:45;;;;;;;6.07;3.67;;;;;;;;;;5052573;27;93396;-72
2022/06/06 13:56:20;;;;;;;5.30;3.20;;;;;;;;;;5067211;27;93835;-75
2022/06/06 13:58:47;;;;;;;3.88;2.45;;;;;;;;;;5048021;27;94441;-74
2022/06/06 14:01:13;;;;;;;4.75;1.42;;;;;;;;;;5054104;27;92413;-75
2022/06/06 14:03:54;;;;;;;2.95;1.63;;;;;;;;;;5048576;27;93127;-74
2022/06/06 14:06:27;;;;;;;3.40;1.00;;;;;;;;;;5066652;27;93338;-77
2022/06/06 14:08:54;;;;;;;0.98;0.98;;;;;;;;;;5062043;27;92350;-76
2022/06/06 14:11:33;;;;;;;1.38;1.27;;;;;;;;;;5073713;27;92952;-76
2022/06/06 14:14:00;;;;;;;2.47;1.05;;;;;;;;;;5058466;27;95902;-75
2022/06/06 14:16:48;;;;;;;1.77;0.68;;;;;;;;;;5052640;27;92415;-76
2022/06/06 14:19:22;;;;;;;2.78;1.00;;;;;;;;;;5058781;27;93246;-76
2022/06/06 14:21:54;;;;;;;1.77;1.00;;;;;;;;;;5072049;27;93153;-76
2022/06/06 14:24:22;;;;;;;1.52;0.73;;;;;;;;;;5073693;27;94394;-76
2022/06/06 14:26:51;;;;;;;1.67;0.85;;;;;;;;;;5067705;27;93233;-76
2022/06/06 14:29:31;;;;;;;1.65;0.90;;;;;;;;;;5054610;27;92506;-76
2022/06/06 14:32:07;;;;;;;3.90;0.80;;;;;;;;;;5073310;27;94448;-76
2022/06/06 14:34:33;;;;;;;;;;;;;;;;;;5066641;27;93487;-76
2022/06/06 14:37:10;;;;;;;1.17;0.57;;;;;;;;;;5072106;27;118577;-76
2022/06/06 14:39:36;;;;;;;1.83;0.82;;;;;;;;;;5048669;27;94834;-76
2022/06/06 14:42:04;;;;;;;1.80;0.57;;;;;;;;;;5061377;27;93387;-77
2022/06/06 14:44:33;;;;;;;2.70;1.10;;;;;;;;;;5052107;27;93762;-76
2022/06/06 14:47:20;;;;;;;3.67;0.70;;;;;;;;;;5056252;27;93574;-76
2022/06/06 14:50:45;;;;;;;2.72;1.05;;;;;;;;;;5057348;27;92415;-77
2022/06/06 14:52:36;;;;;;;6.28;0.85;;;;;;;;;;5055404;27;93167;-77
2022/06/06 14:55:03;;;;;;;6.43;1.05;;;;;;;;;;5055675;27;93176;-77
2022/06/06 14:57:30;;;;;;;1.63;0.80;;;;;;;;;;5056642;27;91665;-77
2022/06/06 14:59:58;;;;;;;3.60;1.13;;;;;;;;;;5057275;27;92613;-77
2022/06/06 15:02:26;;;;;;;3.25;1.40;;;;;;;;;;5056178;27;94523;-77
2022/06/06 15:05:10;;;;;;;2.63;1.10;;;;;;;;;;5053342;27;94867;-77
2022/06/06 15:07:39;;;;;;;2.58;1.45;;;;;;;;;;5056163;27;94446;-77
2022/06/06 15:10:07;;;;;;;4.43;1.10;;;;;;;;;;5055618;27;92657;-77
2022/06/06 15:12:33;;;;;;;3.55;1.00;;;;;;;;;;5056730;27;94098;-77
2022/06/06 15:15:01;;;;;;;3.95;1.42;;;;;;;;;;5056348;27;93338;-76
2022/06/06 15:17:29;;;;;;;4.55;1.40;;;;;;;;;;5039813;27;92512;-77
2022/06/06 15:19:58;;;;;;;5.93;1.20;;;;;;;;;;5046091;27;92602;-77
2022/06/06 15:22:30;;;;;;;3.30;1.27;;;;;;;;;;5056500;27;93387;-77
2022/06/06 15:24:57;;;;;;;3.80;1.65;;;;;;;;;;5052055;27;92583;-76
2022/06/06 15:27:26;;;;;;;3.35;1.30;;;;;;;;;;5038195;27;93611;-76
2022/06/06 15:29:52;;;;;;;5.40;2.38;;;;;;;;;;5050069;27;94920;-77
2022/06/06 15:32:28;;;;;;;3.78;1.80;;;;;;;;;;5055319;27;95518;-76
2022/06/06 15:35:13;;;;;;;11.13;3.28;;;;;;;;;;5041102;27;93480;-77